Time;durP1;ratioP1;P1;durP2;ratioP2;P2;SDS_P1;SDS_P2;PMS_P1;PMS_P2;Temp;Humidity;BMP_temperature;BMP_pressure;BME280_temperature;BME280_humidity;BME280_pressure;Samples;Min_cycle;Max_cycle;Signal;HPM_P1;HPM_P2
2023/10/28 00:01:58;;;;;;;30.00;6.43;;;;;;;20.58;100.00;100898.47;21200702;28;20093;-75
2023/10/28 00:12:22;;;;;;;30.95;7.30;;;;;;;20.40;100.00;100895.31;21208455;28;20051;-75
2023/10/28 00:22:46;;;;;;;30.48;7.70;;;;;;;20.39;100.00;100882.81;21157368;28;20078;-75
2023/10/28 00:33:09;;;;;;;31.00;7.60;;;;;;;20.26;100.00;100875.03;21108151;28;20055;-75
2023/10/28 00:43:33;;;;;;;29.80;7.50;;;;;;;20.10;100.00;100872.69;21147893;28;20053;-76
2023/10/28 00:53:56;;;;;;;31.58;7.22;;;;;;;20.18;100.00;100857.34;21150191;28;20117;-76
2023/10/28 01:04:20;;;;;;;20.52;6.18;;;;;;;20.19;100.00;100865.34;21131690;28;20663;-75
2023/10/28 01:14:43;;;;;;;25.85;6.68;;;;;;;20.15;100.00;100866.31;21141580;28;20058;-75
2023/10/28 01:25:09;;;;;;;26.48;6.60;;;;;;;20.17;100.00;100867.19;21205028;27;20104;-75
2023/10/28 01:35:32;;;;;;;26.85;6.78;;;;;;;20.08;100.00;100867.41;21183448;27;20487;-75
2023/10/28 01:45:56;;;;;;;27.08;7.68;;;;;;;20.02;100.00;100866.66;21143091;28;20051;-75
2023/10/28 01:56:18;;;;;;;28.30;7.45;;;;;;;19.83;100.00;100875.03;21142366;28;20047;-76
2023/10/28 02:06:44;;;;;;;26.17;7.35;;;;;;;19.71;100.00;100875.31;21141702;28;20523;-75
2023/10/28 02:17:07;;;;;;;24.38;7.40;;;;;;;19.66;100.00;100884.34;21149304;27;20039;-75
2023/10/28 02:27:32;;;;;;;26.92;6.80;;;;;;;19.64;100.00;100884.38;21173493;27;20460;-76
2023/10/28 02:37:54;;;;;;;25.27;7.00;;;;;;;19.63;100.00;100887.94;21180089;27;20047;-75
2023/10/28 02:48:18;;;;;;;23.63;7.28;;;;;;;19.52;100.00;100898.00;21134615;28;20101;-76
2023/10/28 02:58:41;;;;;;;31.20;7.28;;;;;;;19.47;100.00;100899.88;21152065;28;20117;-75
2023/10/28 03:09:06;;;;;;;31.50;8.20;;;;;;;19.52;100.00;100898.00;21135389;28;20040;-76
2023/10/28 03:19:30;;;;;;;24.70;7.07;;;;;;;19.36;100.00;100886.66;21168960;27;20081;-75
2023/10/28 03:29:54;;;;;;;30.70;7.28;;;;;;;19.39;100.00;100904.47;21164580;27;20058;-75
2023/10/28 03:40:17;;;;;;;25.27;7.57;;;;;;;19.29;100.00;100897.53;21133600;28;20438;-76
2023/10/28 03:50:41;;;;;;;26.13;6.93;;;;;;;19.22;100.00;100896.75;21142380;28;20399;-75
2023/10/28 04:01:04;;;;;;;33.97;7.95;;;;;;;19.15;100.00;100910.25;21132715;28;20127;-76
2023/10/28 04:11:28;;;;;;;27.60;7.93;;;;;;;19.19;100.00;100902.13;21136080;28;20056;-76
2023/10/28 04:21:51;;;;;;;28.30;8.23;;;;;;;19.21;100.00;100911.03;21145779;28;20070;-75
2023/10/28 04:32:17;;;;;;;27.35;7.25;;;;;;;19.18;100.00;100912.88;21140767;28;20047;-75
2023/10/28 04:42:40;;;;;;;26.92;7.13;;;;;;;19.05;100.00;100936.28;21147830;28;20051;-75
2023/10/28 04:53:04;;;;;;;25.85;7.30;;;;;;;19.14;100.00;100932.56;21159714;28;20079;-76
2023/10/28 05:03:26;;;;;;;29.58;7.75;;;;;;;19.13;100.00;100934.38;21143526;28;20047;-75
2023/10/28 05:13:50;;;;;;;29.30;6.80;;;;;;;19.30;100.00;100947.44;21157697;28;20051;-75
2023/10/28 05:24:13;;;;;;;28.02;6.20;;;;;;;19.78;100.00;100973.41;21143254;28;20039;-76
2023/10/28 05:34:38;;;;;;;28.25;5.53;;;;;;;20.48;100.00;100984.56;21135526;28;20054;-76
2023/10/28 05:45:01;;;;;;;24.75;5.57;;;;;;;21.01;100.00;100984.19;21156245;28;20050;-76
2023/10/28 05:55:25;;;;;;;19.73;5.00;;;;;;;21.69;100.00;100997.75;21140562;28;20323;-76
2023/10/28 06:05:47;;;;;;;24.10;5.35;;;;;;;22.22;100.00;100990.03;21140400;28;20072;-76
2023/10/28 06:16:15;;;;;;;18.45;4.68;;;;;;;22.88;100.00;101000.63;21147276;28;20550;-75
2023/10/28 06:26:38;;;;;;;22.63;4.53;;;;;;;23.70;100.00;100987.13;21130390;28;20058;-77
2023/10/28 06:37:02;;;;;;;25.60;4.78;;;;;;;24.55;100.00;101000.22;21151102;27;20051;-77
2023/10/28 06:47:24;;;;;;;21.90;4.38;;;;;;;25.19;100.00;101005.84;21119111;28;20043;-76
2023/10/28 06:57:49;;;;;;;27.05;4.18;;;;;;;25.83;100.00;101015.78;21141485;28;20538;-76
2023/10/28 07:08:11;;;;;;;24.52;3.95;;;;;;;26.37;100.00;101010.66;21128092;28;20403;-76
2023/10/28 07:18:37;;;;;;;26.67;4.43;;;;;;;26.85;100.00;101020.13;21134995;28;20360;-76
2023/10/28 07:29:06;;;;;;;23.35;4.50;;;;;;;27.31;100.00;101022.41;21086316;28;20047;-79
2023/10/28 07:39:31;;;;;;;21.90;4.00;;;;;;;27.83;100.00;101037.94;21050776;28;20090;-79
2023/10/28 07:49:54;;;;;;;19.70;3.80;;;;;;;28.27;100.00;101036.50;21082082;28;20147;-79
2023/10/28 08:00:19;;;;;;;18.73;3.63;;;;;;;28.53;100.00;101044.13;21103681;28;20075;-79
2023/10/28 08:10:41;;;;;;;17.00;3.45;;;;;;;28.89;92.94;101045.78;21139751;28;20446;-79
2023/10/28 08:21:06;;;;;;;20.88;3.15;;;;;;;29.26;87.23;101050.03;21143300;28;20036;-80
2023/10/28 08:31:28;;;;;;;27.90;3.87;;;;;;;29.27;81.51;101052.69;21163688;28;20043;-79
2023/10/28 08:41:56;;;;;;;21.20;4.15;;;;;;;29.46;78.21;101051.66;21146501;28;20054;-79
2023/10/28 08:52:21;;;;;;;16.65;3.20;;;;;;;29.70;74.53;101058.38;21117457;28;20380;-80
2023/10/28 09:02:49;;;;;;;28.08;4.88;;;;;;;29.70;71.79;101067.41;21150589;28;20092;-79
2023/10/28 09:13:11;;;;;;;22.45;4.25;;;;;;;29.87;69.42;101071.84;21141215;28;20071;-79
2023/10/28 09:23:36;;;;;;;25.92;4.03;;;;;;;30.12;66.86;101064.97;21147657;28;20130;-80
2023/10/28 09:33:59;;;;;;;21.90;3.70;;;;;;;30.17;65.89;101062.84;21145046;28;20035;-79
2023/10/28 09:44:23;;;;;;;28.55;5.07;;;;;;;30.17;68.63;101060.09;21157178;28;20062;-77
2023/10/28 09:54:51;;;;;;;18.40;4.32;;;;;;;30.41;71.97;101055.88;21155456;27;20411;-77
2023/10/28 10:05:18;;;;;;;18.15;3.85;;;;;;;30.34;75.84;101047.19;21142284;28;20437;-78
2023/10/28 10:15:47;;;;;;;18.73;4.18;;;;;;;30.33;80.35;101041.81;21154695;28;20036;-78
2023/10/28 10:26:21;;;;;;;20.30;3.42;;;;;;;30.31;85.62;101038.34;21148084;28;20126;-76
2023/10/28 10:36:46;;;;;;;14.20;3.25;;;;;;;30.09;88.42;101038.78;21093494;28;20044;-79
2023/10/28 10:47:12;;;;;;;19.65;3.97;;;;;;;29.88;93.32;101027.31;21132541;28;20108;-79
2023/10/28 10:57:37;;;;;;;19.40;3.28;;;;;;;29.73;96.71;101029.09;21151656;27;20135;-76
2023/10/28 11:08:02;;;;;;;20.00;4.05;;;;;;;29.59;97.29;101022.75;21149175;28;20047;-75
2023/10/28 11:29:56;;;;;;;16.25;3.58;;;;;;;29.31;92.90;100996.25;21131339;28;20048;-75
2023/10/28 11:40:21;;;;;;;17.63;3.50;;;;;;;29.01;92.70;100985.31;21150377;27;20407;-74
2023/10/28 11:50:45;;;;;;;22.83;4.15;;;;;;;28.72;90.93;100977.88;21109209;28;20295;-75
2023/10/28 12:01:09;;;;;;;25.17;4.13;;;;;;;28.60;96.33;100967.72;21129012;28;20052;-75
2023/10/28 12:11:33;;;;;;;21.25;3.50;;;;;;;28.54;99.86;100966.22;21126470;28;20121;-75
2023/10/28 12:21:55;;;;;;;18.35;3.92;;;;;;;28.50;90.45;100968.22;21123949;28;20086;-75
2023/10/28 12:32:20;;;;;;;19.02;3.83;;;;;;;28.28;97.95;100956.78;21094030;28;20118;-75
2023/10/28 12:42:43;;;;;;;21.60;4.30;;;;;;;28.02;98.64;100966.31;21111415;28;20051;-75
2023/10/28 12:53:07;;;;;;;19.92;3.95;;;;;;;27.92;99.16;100961.44;21146562;28;20048;-75
2023/10/28 13:03:30;;;;;;;17.25;3.95;;;;;;;27.84;100.00;100960.94;21159024;28;20079;-74
2023/10/28 13:13:54;;;;;;;24.83;4.47;;;;;;;27.64;100.00;100954.75;21143672;28;20070;-75
2023/10/28 13:24:17;;;;;;;16.75;3.13;;;;;;;27.52;100.00;100960.81;21094691;28;20046;-75
2023/10/28 13:34:42;;;;;;;19.25;3.40;;;;;;;27.36;100.00;100962.53;21143381;28;20665;-75
2023/10/28 13:45:07;;;;;;;17.90;3.45;;;;;;;27.14;95.58;100972.69;21138046;28;20044;-74
2023/10/28 13:55:32;;;;;;;12.45;3.15;;;;;;;27.02;92.46;100959.75;21125924;28;20039;-75
2023/10/28 14:05:54;;;;;;;15.30;2.67;;;;;;;26.81;87.81;100950.78;21140573;28;20047;-75
2023/10/28 14:16:24;;;;;;;16.23;2.72;;;;;;;26.67;83.01;100951.44;21150398;27;20073;-75
2023/10/28 14:26:46;;;;;;;15.73;2.83;;;;;;;26.54;85.33;100947.56;21137013;28;20055;-75
2023/10/28 14:37:10;;;;;;;16.13;2.83;;;;;;;26.40;84.58;100939.22;21115913;28;20074;-74
2023/10/28 14:47:33;;;;;;;16.90;3.08;;;;;;;26.28;82.63;100928.97;21130220;28;20052;-74
2023/10/28 14:57:58;;;;;;;14.93;3.40;;;;;;;26.10;83.85;100936.09;21113062;28;20036;-75
2023/10/28 15:08:20;;;;;;;18.73;4.13;;;;;;;25.85;86.49;100939.03;21134936;28;20127;-74
2023/10/28 15:18:44;;;;;;;21.30;4.20;;;;;;;25.60;89.67;100947.31;21128462;28;20162;-74
2023/10/28 15:29:07;;;;;;;14.50;2.70;;;;;;;25.42;92.31;100953.50;21124530;28;20073;-75
2023/10/28 15:39:31;;;;;;;21.83;3.55;;;;;;;25.12;96.50;100958.38;21106705;28;20054;-74
2023/10/28 15:49:53;;;;;;;10.52;2.80;;;;;;;24.85;98.55;100971.16;21130656;28;20051;-75
2023/10/28 16:00:17;;;;;;;15.10;2.90;;;;;;;24.70;98.87;100982.56;21128470;28;20051;-76
2023/10/28 16:10:40;;;;;;;17.23;3.17;;;;;;;24.52;100.00;100983.28;21123320;28;20044;-75
2023/10/28 16:21:04;;;;;;;18.20;4.75;;;;;;;24.31;100.00;100993.06;21139152;28;20039;-74
2023/10/28 16:31:27;;;;;;;21.75;5.72;;;;;;;24.09;100.00;100997.47;21113115;28;20495;-74
2023/10/28 16:41:51;;;;;;;17.58;5.50;;;;;;;24.07;100.00;101011.00;21146105;28;20051;-75
2023/10/28 16:52:14;;;;;;;17.63;5.20;;;;;;;24.03;100.00;101011.16;21141215;28;20071;-74
2023/10/28 17:02:39;;;;;;;16.88;3.45;;;;;;;24.01;100.00;101021.13;21135545;28;20092;-76
2023/10/28 17:13:01;;;;;;;16.13;3.63;;;;;;;23.90;100.00;101012.53;21150442;28;20138;-75
2023/10/28 17:23:25;;;;;;;21.40;7.00;;;;;;;23.73;100.00;101022.09;21162705;28;20498;-76
2023/10/28 17:33:48;;;;;;;17.67;5.57;;;;;;;23.60;100.00;101031.53;21148038;28;20134;-75
2023/10/28 17:44:12;;;;;;;19.45;4.35;;;;;;;23.33;100.00;101035.09;21157641;28;20052;-75
2023/10/28 17:54:35;;;;;;;15.57;3.83;;;;;;;23.21;100.00;101040.91;21125749;28;20054;-76
2023/10/28 18:04:59;;;;;;;20.00;3.50;;;;;;;23.16;100.00;101034.78;21153370;28;20104;-75
2023/10/28 18:15:22;;;;;;;14.55;3.50;;;;;;;23.04;100.00;101042.28;21139188;28;20384;-76
2023/10/28 18:25:47;;;;;;;12.20;4.00;;;;;;;22.75;100.00;101047.72;21140560;28;20058;-77
2023/10/28 18:36:15;;;;;;;15.23;3.97;;;;;;;22.65;100.00;101056.94;21145383;28;20093;-78
2023/10/28 18:46:40;;;;;;;14.13;4.45;;;;;;;22.43;100.00;101058.50;21133953;28;20097;-77
2023/10/28 18:57:03;;;;;;;16.13;5.57;;;;;;;22.55;100.00;101060.84;21156683;28;20571;-78
2023/10/28 19:07:27;;;;;;;12.80;4.30;;;;;;;22.60;100.00;101064.28;21106234;28;20427;-75
2023/10/28 19:17:50;;;;;;;18.63;4.95;;;;;;;22.55;100.00;101085.06;21136990;28;20088;-77
2023/10/28 19:28:15;;;;;;;21.75;4.65;;;;;;;22.49;100.00;101090.63;21150076;27;20437;-76
2023/10/28 19:38:39;;;;;;;14.18;4.78;;;;;;;22.41;100.00;101098.91;21117705;27;20043;-78
2023/10/28 19:49:06;;;;;;;14.38;3.95;;;;;;;22.43;100.00;101105.13;21118868;28;20044;-78
2023/10/28 19:59:29;;;;;;;14.52;4.57;;;;;;;22.61;100.00;101119.88;21129459;28;20100;-75
2023/10/28 20:09:54;;;;;;;11.75;3.17;;;;;;;22.58;100.00;101111.88;21123638;28;20039;-76
2023/10/28 20:20:17;;;;;;;12.48;3.28;;;;;;;22.56;100.00;101120.00;21129381;28;20055;-78
2023/10/28 20:30:41;;;;;;;13.63;3.25;;;;;;;22.56;100.00;101111.06;21122556;28;20047;-78
2023/10/28 20:41:04;;;;;;;19.45;4.15;;;;;;;22.72;100.00;101106.09;21132836;28;20042;-79
2023/10/28 20:51:28;;;;;;;15.60;3.05;;;;;;;22.66;100.00;101096.38;21123746;28;20116;-78
2023/10/28 21:01:50;;;;;;;15.13;3.80;;;;;;;22.58;100.00;101106.47;21111857;28;20048;-78
2023/10/28 21:12:14;;;;;;;17.25;3.63;;;;;;;22.73;100.00;101089.94;21149493;28;20048;-78
2023/10/28 21:22:37;;;;;;;15.70;3.92;;;;;;;22.84;100.00;101085.09;21140249;28;20071;-78
2023/10/28 21:33:02;;;;;;;15.00;3.58;;;;;;;22.86;100.00;101106.59;21145742;28;20487;-78
2023/10/28 21:43:24;;;;;;;14.50;3.90;;;;;;;22.66;100.00;101104.47;21155872;28;20048;-78
2023/10/28 21:53:49;;;;;;;14.13;3.95;;;;;;;22.65;100.00;101098.19;21137115;28;20047;-78
2023/10/28 22:04:11;;;;;;;16.30;4.97;;;;;;;22.85;100.00;101111.13;21144564;28;20070;-78
2023/10/28 22:14:36;;;;;;;16.15;4.32;;;;;;;22.88;100.00;101100.25;21151030;28;20043;-78
2023/10/28 22:24:59;;;;;;;12.27;2.97;;;;;;;22.88;100.00;101094.00;21135599;28;20058;-78
2023/10/28 22:35:25;;;;;;;13.15;3.65;;;;;;;22.81;100.00;101096.00;21137635;28;20031;-78
2023/10/28 22:45:48;;;;;;;11.80;3.42;;;;;;;22.76;100.00;101097.06;21140226;28;20104;-78
2023/10/28 22:56:12;;;;;;;18.00;3.92;;;;;;;22.61;100.00;101104.59;21137487;28;20051;-79
2023/10/28 23:06:35;;;;;;;14.80;3.90;;;;;;;22.52;100.00;101121.00;21136889;28;20129;-78
2023/10/28 23:17:00;;;;;;;10.18;4.05;;;;;;;22.45;100.00;101110.47;21124787;28;20403;-77
2023/10/28 23:27:22;;;;;;;13.82;4.05;;;;;;;22.36;100.00;101108.91;21129991;28;20395;-78
2023/10/28 23:37:47;;;;;;;12.48;3.08;;;;;;;22.29;100.00;101111.81;21125708;28;20046;-77
2023/10/28 23:48:09;;;;;;;14.32;3.90;;;;;;;22.08;100.00;101108.75;21126129;28;20055;-78
2023/10/28 23:58:33;;;;;;;12.00;3.65;;;;;;;22.07;100.00;101098.91;21132256;28;20384;-78
